createdAt,value
2018-08-03T00:00:11.434Z,25.64
2018-08-03T00:05:15.018Z,25.32
2018-08-03T00:10:18.578Z,25.40
2018-08-03T00:15:22.075Z,25.58
2018-08-03T00:20:25.705Z,25.61
2018-08-03T00:25:29.303Z,25.55
2018-08-03T00:30:32.987Z,25.28
2018-08-03T00:35:36.503Z,25.26
2018-08-03T00:40:40.057Z,25.16
2018-08-03T00:45:43.568Z,25.09
2018-08-03T00:50:48.461Z,24.89
2018-08-03T00:55:52.220Z,24.71
2018-08-03T01:00:55.857Z,24.74
2018-08-03T01:05:59.338Z,24.73
2018-08-03T01:11:03.306Z,24.51
2018-08-03T01:16:07.426Z,24.35
2018-08-03T01:21:11.019Z,24.37
2018-08-03T01:26:14.726Z,24.39
2018-08-03T01:31:18.223Z,24.46
2018-08-03T01:36:21.876Z,24.68
2018-08-03T01:41:26.010Z,24.57
2018-08-03T01:46:29.692Z,24.34
2018-08-03T01:51:33.227Z,24.29
2018-08-03T01:56:36.849Z,24.34
2018-08-03T02:01:40.384Z,24.35
2018-08-03T02:06:43.967Z,24.10
2018-08-03T02:11:47.474Z,23.93
2018-08-03T02:16:51.406Z,23.92
2018-08-03T02:21:55.146Z,24.11
2018-08-03T02:26:58.731Z,24.19
2018-08-03T02:32:02.514Z,24.16
2018-08-03T02:37:06.486Z,23.96
2018-08-03T02:42:10.002Z,23.71
2018-08-03T02:47:13.673Z,23.60
2018-08-03T02:52:17.165Z,23.51
2018-08-03T02:57:20.830Z,23.42
2018-08-03T03:02:24.331Z,23.54
2018-08-03T03:07:27.844Z,23.69
2018-08-03T03:12:31.430Z,23.65
2018-08-03T03:17:35.137Z,23.61
2018-08-03T03:22:38.650Z,23.33
2018-08-03T03:27:42.237Z,23.25
2018-08-03T03:32:46.469Z,23.37
2018-08-03T03:54:21.669Z,23.64
2018-08-03T03:59:27.766Z,23.59
2018-08-03T04:04:34.797Z,23.53
2018-08-03T04:09:39.365Z,23.58
2018-08-03T04:14:43.813Z,23.66
2018-08-03T04:19:47.516Z,23.69
2018-08-03T04:24:51.214Z,23.67
2018-08-03T04:29:55.202Z,23.70
2018-08-03T04:34:59.170Z,23.73
2018-08-03T04:56:25.910Z,24.05
2018-08-03T05:01:29.456Z,24.13
2018-08-03T05:06:33.157Z,24.19
2018-08-03T05:11:36.721Z,24.29
2018-08-03T05:16:41.064Z,24.37
2018-08-03T05:21:44.661Z,24.45
2018-08-03T05:26:48.221Z,24.55
2018-08-03T05:31:51.904Z,24.62
2018-08-03T05:36:55.596Z,24.68
2018-08-03T05:41:59.206Z,24.76
2018-08-03T05:47:03.025Z,24.84
2018-08-03T05:52:06.670Z,24.95
2018-08-03T05:57:10.190Z,25.00
2018-08-03T06:02:14.895Z,25.09
2018-08-03T06:07:18.701Z,25.16
2018-08-03T06:12:22.317Z,25.29
2018-08-03T06:17:26.421Z,25.35
2018-08-03T06:22:30.418Z,25.37
2018-08-03T06:27:34.394Z,25.30
2018-08-03T06:32:38.526Z,25.28
2018-08-03T06:37:43.170Z,25.53
2018-08-03T06:42:46.692Z,25.70
2018-08-03T06:47:50.282Z,25.83
2018-08-03T06:52:54.265Z,25.94
2018-08-03T06:57:57.793Z,26.13
2018-08-03T07:03:01.303Z,26.24
2018-08-03T07:08:05.035Z,26.30
2018-08-03T07:13:08.618Z,26.41
2018-08-03T07:18:12.202Z,26.48
2018-08-03T07:23:15.751Z,26.57
2018-08-03T07:28:19.958Z,26.72
2018-08-03T07:33:23.518Z,26.83
2018-08-03T07:38:27.198Z,26.92
2018-08-03T07:43:31.732Z,27.05
2018-08-03T07:48:36.322Z,27.12
2018-08-03T07:53:40.614Z,27.27
2018-08-03T07:58:45.625Z,27.31
2018-08-03T08:03:49.947Z,27.41
2018-08-03T08:08:54.512Z,27.48
2018-08-03T08:13:59.022Z,27.54
2018-08-03T08:19:04.377Z,27.63
2018-08-03T08:24:08.621Z,27.35
2018-08-03T08:29:13.487Z,27.03
2018-08-03T08:34:21.771Z,27.35
2018-08-03T08:39:26.410Z,27.70
2018-08-03T08:44:31.003Z,28.03
2018-08-03T08:49:35.539Z,28.25
2018-08-03T08:54:40.332Z,28.39
2018-08-03T08:59:45.447Z,28.52
2018-08-03T09:04:49.017Z,28.70
2018-08-03T09:09:52.763Z,28.81
2018-08-03T09:14:56.638Z,28.97
2018-08-03T09:20:06.288Z,29.07
2018-08-03T09:25:10.307Z,29.25
2018-08-03T09:30:14.121Z,29.41
2018-08-03T09:35:17.918Z,29.53
2018-08-03T09:40:21.487Z,29.64
2018-08-03T09:45:25.132Z,29.75
2018-08-03T09:50:29.019Z,29.92
2018-08-03T09:55:33.210Z,29.91
2018-08-03T10:00:42.504Z,29.99
2018-08-03T10:05:46.453Z,30.36
2018-08-03T10:10:50.204Z,30.62
2018-08-03T10:15:54.203Z,31.06
2018-08-03T10:20:59.400Z,31.25
2018-08-03T10:26:03.330Z,31.18
2018-08-03T10:31:07.998Z,31.00
2018-08-03T10:36:12.148Z,31.07
2018-08-03T10:41:16.220Z,31.26
2018-08-03T10:46:21.167Z,31.36
2018-08-03T10:51:25.662Z,31.55
2018-08-03T10:56:29.805Z,31.97
2018-08-03T11:01:34.246Z,32.26
2018-08-03T11:06:38.144Z,32.34
2018-08-03T11:11:42.398Z,32.55
2018-08-03T11:16:46.166Z,32.38
2018-08-03T11:21:50.458Z,32.70
2018-08-03T11:26:54.302Z,32.47
2018-08-03T11:31:58.435Z,32.99
2018-08-03T11:37:02.560Z,33.10
2018-08-03T11:42:07.535Z,33.32
2018-08-03T11:47:12.174Z,33.59
2018-08-03T11:52:16.553Z,33.89
2018-08-03T11:57:20.763Z,34.30
2018-08-03T12:02:24.582Z,42.08
2018-08-03T12:07:29.380Z,41.99
2018-08-03T12:12:33.996Z,42.74
2018-08-03T12:17:37.535Z,42.66
2018-08-03T12:22:41.855Z,41.77
2018-08-03T12:27:45.787Z,41.38
2018-08-03T12:32:49.916Z,41.44
2018-08-03T12:37:53.837Z,41.54
2018-08-03T12:42:57.954Z,42.18
2018-08-03T12:48:02.131Z,40.96
2018-08-03T12:53:06.721Z,40.18
2018-08-03T12:58:11.916Z,39.78
2018-08-03T13:03:15.990Z,39.18
2018-08-03T13:08:21.028Z,39.12
2018-08-03T13:13:24.870Z,38.84
2018-08-03T13:18:29.881Z,38.30
2018-08-03T13:23:33.801Z,38.00
2018-08-03T13:28:38.637Z,37.65
2018-08-03T13:33:42.648Z,37.45
2018-08-03T13:38:47.945Z,37.10
2018-08-03T13:43:52.333Z,36.61
2018-08-03T13:48:56.302Z,36.58
2018-08-03T13:54:01.515Z,36.83
2018-08-03T13:59:06.901Z,37.09
2018-08-03T14:04:11.614Z,37.11
2018-08-03T14:09:16.275Z,36.44
2018-08-03T14:14:22.176Z,36.02
2018-08-03T14:19:26.773Z,35.73
2018-08-03T14:24:31.858Z,35.25
2018-08-03T14:29:36.995Z,34.88
2018-08-03T14:34:41.258Z,35.48
2018-08-03T14:39:45.534Z,36.19
2018-08-03T14:44:53.175Z,36.55
2018-08-03T14:49:57.722Z,36.62
2018-08-03T14:55:04.824Z,36.53
2018-08-03T15:00:08.726Z,36.42
2018-08-03T15:05:13.313Z,36.77
2018-08-03T15:10:17.886Z,36.73
2018-08-03T15:15:22.295Z,37.30
2018-08-03T15:20:27.256Z,36.49
2018-08-03T15:25:31.713Z,35.88
2018-08-03T15:30:35.971Z,35.76
2018-08-03T15:35:41.180Z,36.44
2018-08-03T15:40:45.733Z,37.86
2018-08-03T15:45:50.079Z,39.09
2018-08-03T15:50:56.211Z,39.64
2018-08-03T15:56:00.287Z,40.07
2018-08-03T16:01:04.617Z,40.40
2018-08-03T16:06:08.902Z,41.21
2018-08-03T16:11:13.628Z,43.93
2018-08-03T16:16:18.172Z,45.66
2018-08-03T16:21:21.927Z,43.41
2018-08-03T16:26:26.050Z,38.89
2018-08-03T16:31:29.845Z,37.03
2018-08-03T16:36:33.852Z,40.39
2018-08-03T16:41:38.006Z,38.89
2018-08-03T16:46:43.755Z,38.05
2018-08-03T16:51:49.200Z,39.08
2018-08-03T16:56:53.485Z,37.68
2018-08-03T17:01:57.968Z,39.05
2018-08-03T17:07:02.186Z,38.34
2018-08-03T17:12:06.289Z,37.92
2018-08-03T17:17:10.358Z,37.36
2018-08-03T17:22:14.455Z,37.29
2018-08-03T17:27:18.984Z,38.03
2018-08-03T17:32:23.123Z,37.57
2018-08-03T17:37:27.052Z,37.20
2018-08-03T17:42:31.818Z,37.41
2018-08-03T17:47:35.827Z,39.37
2018-08-03T17:52:39.758Z,37.36
2018-08-03T17:57:43.926Z,35.69
2018-08-03T18:02:48.161Z,34.86
2018-08-03T18:07:52.290Z,34.62
2018-08-03T18:12:56.757Z,34.60
2018-08-03T18:18:00.796Z,34.06
2018-08-03T18:23:04.942Z,34.24
2018-08-03T18:28:08.883Z,34.07
2018-08-03T18:33:12.999Z,33.35
2018-08-03T18:38:17.092Z,32.88
2018-08-03T18:43:21.986Z,32.54
2018-08-03T18:48:25.962Z,32.24
2018-08-03T18:53:30.722Z,31.95
2018-08-03T18:58:34.670Z,31.72
2018-08-03T19:03:39.354Z,31.55
2018-08-03T19:08:43.595Z,31.40
2018-08-03T19:13:47.893Z,31.20
2018-08-03T19:18:51.919Z,31.06
2018-08-03T19:23:55.763Z,30.93
2018-08-03T19:29:00.126Z,30.70
2018-08-03T19:34:04.420Z,30.61
2018-08-03T19:39:09.926Z,30.54
2018-08-03T19:44:14.464Z,30.38
2018-08-03T19:49:17.965Z,30.26
2018-08-03T19:54:22.746Z,30.19
2018-08-03T19:59:26.971Z,30.10
2018-08-03T20:04:30.853Z,29.97
2018-08-03T20:09:34.365Z,29.86
2018-08-03T20:14:38.028Z,29.78
2018-08-03T20:19:41.661Z,29.69
2018-08-03T20:24:46.983Z,29.57
2018-08-03T20:29:51.129Z,29.45
2018-08-03T20:34:54.741Z,29.38
2018-08-03T20:39:58.325Z,29.34
2018-08-03T20:45:02.617Z,29.19
2018-08-03T20:50:06.392Z,29.12
2018-08-03T20:55:10.556Z,29.01
2018-08-03T21:00:14.302Z,28.93
2018-08-03T21:05:17.981Z,28.84
2018-08-03T21:10:22.035Z,28.69
2018-08-03T21:15:25.985Z,28.64
2018-08-03T21:20:29.908Z,28.48
2018-08-03T21:25:33.656Z,28.11
2018-08-03T21:30:37.259Z,27.76
2018-08-03T21:35:41.102Z,27.89
2018-08-03T21:40:45.421Z,28.06
2018-08-03T21:45:49.148Z,28.07
2018-08-03T21:50:52.942Z,28.06
2018-08-03T21:55:56.625Z,27.98
2018-08-03T22:01:00.671Z,27.97
2018-08-03T22:06:04.464Z,28.00
2018-08-03T22:11:08.078Z,27.94
2018-08-03T22:16:11.703Z,27.87
2018-08-03T22:21:15.233Z,27.76
2018-08-03T22:26:18.774Z,27.75
2018-08-03T22:31:22.349Z,27.68
2018-08-03T22:36:25.921Z,27.61
2018-08-03T22:41:29.486Z,27.54
2018-08-03T22:46:33.680Z,27.46
2018-08-03T22:51:37.269Z,27.37
2018-08-03T22:56:41.167Z,27.34
2018-08-03T23:01:44.770Z,27.28
2018-08-03T23:06:48.674Z,27.24
2018-08-03T23:11:52.529Z,27.25
2018-08-03T23:16:56.523Z,27.21
2018-08-03T23:22:00.442Z,27.17
2018-08-03T23:27:04.554Z,27.10
2018-08-03T23:32:08.259Z,27.03
2018-08-03T23:37:12.213Z,26.96
2018-08-03T23:42:16.887Z,26.99
2018-08-03T23:47:21.101Z,26.94
2018-08-03T23:52:25.109Z,26.85
2018-08-03T23:57:29.208Z,26.76
